sensor_id;sensor_type;location;lat;lon;timestamp;P1;durP1;ratioP1;P2;durP2;ratioP2
6551;SDS011;3309;48.708;9.290;2023-11-18T00:01:31;0.80;;;0.80;;
6551;SDS011;3309;48.708;9.290;2023-11-18T00:03:58;0.70;;;0.70;;
6551;SDS011;3309;48.708;9.290;2023-11-18T00:06:24;0.77;;;0.77;;
6551;SDS011;3309;48.708;9.290;2023-11-18T00:08:50;0.70;;;0.70;;
6551;SDS011;3309;48.708;9.290;2023-11-18T00:11:16;0.80;;;0.80;;
6551;SDS011;3309;48.708;9.290;2023-11-18T00:13:43;0.80;;;0.80;;
6551;SDS011;3309;48.708;9.290;2023-11-18T00:16:09;0.80;;;0.80;;
6551;SDS011;3309;48.708;9.290;2023-11-18T00:18:39;0.70;;;0.70;;
6551;SDS011;3309;48.708;9.290;2023-11-18T00:21:05;0.73;;;0.73;;
6551;SDS011;3309;48.708;9.290;2023-11-18T00:23:32;0.80;;;0.80;;
6551;SDS011;3309;48.708;9.290;2023-11-18T00:25:58;0.90;;;0.90;;
6551;SDS011;3309;48.708;9.290;2023-11-18T00:28:24;0.80;;;0.80;;
6551;SDS011;3309;48.708;9.290;2023-11-18T00:30:50;0.80;;;0.80;;
6551;SDS011;3309;48.708;9.290;2023-11-18T00:33:16;0.73;;;0.73;;
6551;SDS011;3309;48.708;9.290;2023-11-18T00:35:42;0.80;;;0.80;;
6551;SDS011;3309;48.708;9.290;2023-11-18T00:38:10;0.70;;;0.70;;
6551;SDS011;3309;48.708;9.290;2023-11-18T00:40:36;0.77;;;0.77;;
6551;SDS011;3309;48.708;9.290;2023-11-18T00:43:02;0.80;;;0.80;;
6551;SDS011;3309;48.708;9.290;2023-11-18T00:45:28;0.80;;;0.80;;
6551;SDS011;3309;48.708;9.290;2023-11-18T00:47:54;0.80;;;0.80;;
6551;SDS011;3309;48.708;9.290;2023-11-18T00:50:20;0.80;;;0.80;;
6551;SDS011;3309;48.708;9.290;2023-11-18T00:52:46;0.80;;;0.80;;
6551;SDS011;3309;48.708;9.290;2023-11-18T00:55:13;0.90;;;0.90;;
6551;SDS011;3309;48.708;9.290;2023-11-18T00:57:39;0.70;;;0.70;;
6551;SDS011;3309;48.708;9.290;2023-11-18T01:00:08;0.70;;;0.70;;
6551;SDS011;3309;48.708;9.290;2023-11-18T01:02:39;0.70;;;0.70;;
6551;SDS011;3309;48.708;9.290;2023-11-18T01:05:05;0.70;;;0.70;;
6551;SDS011;3309;48.708;9.290;2023-11-18T01:07:34;0.77;;;0.77;;
6551;SDS011;3309;48.708;9.290;2023-11-18T01:10:01;0.70;;;0.70;;
6551;SDS011;3309;48.708;9.290;2023-11-18T01:12:28;0.80;;;0.80;;
6551;SDS011;3309;48.708;9.290;2023-11-18T01:14:54;0.80;;;0.80;;
6551;SDS011;3309;48.708;9.290;2023-11-18T01:17:20;0.60;;;0.60;;
6551;SDS011;3309;48.708;9.290;2023-11-18T01:19:47;0.70;;;0.70;;
6551;SDS011;3309;48.708;9.290;2023-11-18T01:22:13;0.80;;;0.80;;
6551;SDS011;3309;48.708;9.290;2023-11-18T01:24:39;0.80;;;0.80;;
6551;SDS011;3309;48.708;9.290;2023-11-18T01:27:05;0.70;;;0.70;;
6551;SDS011;3309;48.708;9.290;2023-11-18T01:29:34;0.70;;;0.70;;
6551;SDS011;3309;48.708;9.290;2023-11-18T01:32:01;0.70;;;0.70;;
6551;SDS011;3309;48.708;9.290;2023-11-18T01:34:33;0.80;;;0.80;;
6551;SDS011;3309;48.708;9.290;2023-11-18T01:36:59;0.70;;;0.70;;
6551;SDS011;3309;48.708;9.290;2023-11-18T01:39:25;0.80;;;0.80;;
6551;SDS011;3309;48.708;9.290;2023-11-18T01:41:52;0.80;;;0.80;;
6551;SDS011;3309;48.708;9.290;2023-11-18T01:44:18;0.70;;;0.70;;
6551;SDS011;3309;48.708;9.290;2023-11-18T01:46:45;0.80;;;0.80;;
6551;SDS011;3309;48.708;9.290;2023-11-18T01:49:11;0.70;;;0.70;;
6551;SDS011;3309;48.708;9.290;2023-11-18T01:51:43;0.70;;;0.70;;
6551;SDS011;3309;48.708;9.290;2023-11-18T01:54:10;0.70;;;0.70;;
6551;SDS011;3309;48.708;9.290;2023-11-18T01:56:40;0.70;;;0.70;;
6551;SDS011;3309;48.708;9.290;2023-11-18T01:59:08;0.70;;;0.70;;
6551;SDS011;3309;48.708;9.290;2023-11-18T02:01:35;0.67;;;0.67;;
6551;SDS011;3309;48.708;9.290;2023-11-18T02:04:01;0.80;;;0.80;;
6551;SDS011;3309;48.708;9.290;2023-11-18T02:06:28;0.73;;;0.73;;
6551;SDS011;3309;48.708;9.290;2023-11-18T02:08:54;0.70;;;0.70;;
6551;SDS011;3309;48.708;9.290;2023-11-18T02:11:22;0.80;;;0.80;;
6551;SDS011;3309;48.708;9.290;2023-11-18T02:13:51;0.90;;;0.90;;
6551;SDS011;3309;48.708;9.290;2023-11-18T02:16:19;0.80;;;0.80;;
6551;SDS011;3309;48.708;9.290;2023-11-18T02:18:45;0.80;;;0.80;;
6551;SDS011;3309;48.708;9.290;2023-11-18T02:21:12;0.60;;;0.60;;
6551;SDS011;3309;48.708;9.290;2023-11-18T02:23:39;0.70;;;0.70;;
6551;SDS011;3309;48.708;9.290;2023-11-18T02:26:07;0.80;;;0.80;;
6551;SDS011;3309;48.708;9.290;2023-11-18T02:28:34;0.80;;;0.80;;
6551;SDS011;3309;48.708;9.290;2023-11-18T02:31:02;0.70;;;0.70;;
6551;SDS011;3309;48.708;9.290;2023-11-18T02:33:40;0.80;;;0.80;;
6551;SDS011;3309;48.708;9.290;2023-11-18T02:36:10;0.80;;;0.80;;
6551;SDS011;3309;48.708;9.290;2023-11-18T02:38:39;0.70;;;0.70;;
6551;SDS011;3309;48.708;9.290;2023-11-18T02:41:10;0.73;;;0.73;;
6551;SDS011;3309;48.708;9.290;2023-11-18T02:43:37;0.77;;;0.77;;
6551;SDS011;3309;48.708;9.290;2023-11-18T02:46:05;0.70;;;0.70;;
6551;SDS011;3309;48.708;9.290;2023-11-18T02:48:33;0.80;;;0.80;;
6551;SDS011;3309;48.708;9.290;2023-11-18T02:51:00;0.80;;;0.80;;
6551;SDS011;3309;48.708;9.290;2023-11-18T02:53:26;0.70;;;0.70;;
6551;SDS011;3309;48.708;9.290;2023-11-18T02:55:53;0.70;;;0.70;;
6551;SDS011;3309;48.708;9.290;2023-11-18T02:58:27;0.80;;;0.80;;
6551;SDS011;3309;48.708;9.290;2023-11-18T03:00:53;0.80;;;0.80;;
6551;SDS011;3309;48.708;9.290;2023-11-18T03:03:19;0.80;;;0.80;;
6551;SDS011;3309;48.708;9.290;2023-11-18T03:05:45;0.73;;;0.73;;
6551;SDS011;3309;48.708;9.290;2023-11-18T03:08:13;0.73;;;0.73;;
6551;SDS011;3309;48.708;9.290;2023-11-18T03:10:39;0.80;;;0.80;;
6551;SDS011;3309;48.708;9.290;2023-11-18T03:13:09;0.80;;;0.80;;
6551;SDS011;3309;48.708;9.290;2023-11-18T03:15:35;0.77;;;0.77;;
6551;SDS011;3309;48.708;9.290;2023-11-18T03:18:01;0.80;;;0.80;;
6551;SDS011;3309;48.708;9.290;2023-11-18T03:20:27;0.70;;;0.70;;
6551;SDS011;3309;48.708;9.290;2023-11-18T03:22:54;0.70;;;0.70;;
6551;SDS011;3309;48.708;9.290;2023-11-18T03:25:20;0.70;;;0.70;;
6551;SDS011;3309;48.708;9.290;2023-11-18T03:27:48;0.70;;;0.70;;
6551;SDS011;3309;48.708;9.290;2023-11-18T03:30:14;0.77;;;0.77;;
6551;SDS011;3309;48.708;9.290;2023-11-18T03:32:42;0.70;;;0.70;;
6551;SDS011;3309;48.708;9.290;2023-11-18T03:35:08;0.80;;;0.80;;
6551;SDS011;3309;48.708;9.290;2023-11-18T03:37:37;0.80;;;0.80;;
6551;SDS011;3309;48.708;9.290;2023-11-18T03:40:05;0.70;;;0.70;;
6551;SDS011;3309;48.708;9.290;2023-11-18T03:42:31;0.80;;;0.80;;
6551;SDS011;3309;48.708;9.290;2023-11-18T03:44:57;0.70;;;0.70;;
6551;SDS011;3309;48.708;9.290;2023-11-18T03:47:23;0.90;;;0.90;;
6551;SDS011;3309;48.708;9.290;2023-11-18T03:49:49;0.70;;;0.70;;
6551;SDS011;3309;48.708;9.290;2023-11-18T03:52:15;0.80;;;0.80;;
6551;SDS011;3309;48.708;9.290;2023-11-18T03:54:41;0.80;;;0.80;;
6551;SDS011;3309;48.708;9.290;2023-11-18T03:57:07;0.70;;;0.70;;
6551;SDS011;3309;48.708;9.290;2023-11-18T03:59:33;0.80;;;0.80;;
6551;SDS011;3309;48.708;9.290;2023-11-18T04:01:59;0.80;;;0.80;;
6551;SDS011;3309;48.708;9.290;2023-11-18T04:04:25;0.80;;;0.80;;
6551;SDS011;3309;48.708;9.290;2023-11-18T04:06:52;0.80;;;0.80;;
6551;SDS011;3309;48.708;9.290;2023-11-18T04:09:18;0.90;;;0.90;;
6551;SDS011;3309;48.708;9.290;2023-11-18T04:11:44;0.80;;;0.80;;
6551;SDS011;3309;48.708;9.290;2023-11-18T04:14:11;0.70;;;0.70;;
6551;SDS011;3309;48.708;9.290;2023-11-18T04:16:37;0.80;;;0.80;;
6551;SDS011;3309;48.708;9.290;2023-11-18T04:19:03;0.77;;;0.77;;
6551;SDS011;3309;48.708;9.290;2023-11-18T04:21:30;0.70;;;0.70;;
6551;SDS011;3309;48.708;9.290;2023-11-18T04:23:56;0.80;;;0.80;;
6551;SDS011;3309;48.708;9.290;2023-11-18T04:26:22;0.80;;;0.80;;
6551;SDS011;3309;48.708;9.290;2023-11-18T04:28:49;0.70;;;0.70;;
6551;SDS011;3309;48.708;9.290;2023-11-18T04:31:15;0.80;;;0.80;;
6551;SDS011;3309;48.708;9.290;2023-11-18T04:33:41;0.70;;;0.70;;
6551;SDS011;3309;48.708;9.290;2023-11-18T04:36:07;0.70;;;0.70;;
6551;SDS011;3309;48.708;9.290;2023-11-18T04:38:35;0.90;;;0.90;;
6551;SDS011;3309;48.708;9.290;2023-11-18T04:41:01;0.80;;;0.80;;
6551;SDS011;3309;48.708;9.290;2023-11-18T04:43:28;0.73;;;0.73;;
6551;SDS011;3309;48.708;9.290;2023-11-18T04:45:55;0.80;;;0.80;;
6551;SDS011;3309;48.708;9.290;2023-11-18T04:48:21;0.80;;;0.80;;
6551;SDS011;3309;48.708;9.290;2023-11-18T04:50:48;0.80;;;0.80;;
6551;SDS011;3309;48.708;9.290;2023-11-18T04:53:14;0.73;;;0.73;;
6551;SDS011;3309;48.708;9.290;2023-11-18T04:55:40;0.70;;;0.70;;
6551;SDS011;3309;48.708;9.290;2023-11-18T04:58:06;0.80;;;0.80;;
6551;SDS011;3309;48.708;9.290;2023-11-18T05:00:34;0.73;;;0.73;;
6551;SDS011;3309;48.708;9.290;2023-11-18T05:03:00;0.70;;;0.70;;
6551;SDS011;3309;48.708;9.290;2023-11-18T05:05:28;0.77;;;0.77;;
6551;SDS011;3309;48.708;9.290;2023-11-18T05:07:54;0.70;;;0.70;;
6551;SDS011;3309;48.708;9.290;2023-11-18T05:10:20;0.77;;;0.77;;
6551;SDS011;3309;48.708;9.290;2023-11-18T05:12:46;0.80;;;0.80;;
6551;SDS011;3309;48.708;9.290;2023-11-18T05:15:20;0.90;;;0.90;;
6551;SDS011;3309;48.708;9.290;2023-11-18T05:17:49;0.83;;;0.83;;
6551;SDS011;3309;48.708;9.290;2023-11-18T05:20:16;0.70;;;0.70;;
6551;SDS011;3309;48.708;9.290;2023-11-18T05:22:42;0.80;;;0.80;;
6551;SDS011;3309;48.708;9.290;2023-11-18T05:25:08;0.90;;;0.90;;
6551;SDS011;3309;48.708;9.290;2023-11-18T05:27:37;0.70;;;0.70;;
6551;SDS011;3309;48.708;9.290;2023-11-18T05:30:07;0.73;;;0.73;;
6551;SDS011;3309;48.708;9.290;2023-11-18T05:32:34;0.70;;;0.70;;
6551;SDS011;3309;48.708;9.290;2023-11-18T05:35:00;0.70;;;0.70;;
6551;SDS011;3309;48.708;9.290;2023-11-18T05:37:26;0.83;;;0.83;;
6551;SDS011;3309;48.708;9.290;2023-11-18T05:39:54;0.80;;;0.80;;
6551;SDS011;3309;48.708;9.290;2023-11-18T05:42:31;0.73;;;0.73;;
6551;SDS011;3309;48.708;9.290;2023-11-18T05:44:57;0.80;;;0.80;;
6551;SDS011;3309;48.708;9.290;2023-11-18T05:47:27;0.80;;;0.80;;
6551;SDS011;3309;48.708;9.290;2023-11-18T05:49:53;0.80;;;0.80;;
6551;SDS011;3309;48.708;9.290;2023-11-18T05:52:20;0.70;;;0.70;;
6551;SDS011;3309;48.708;9.290;2023-11-18T05:54:47;0.70;;;0.70;;
6551;SDS011;3309;48.708;9.290;2023-11-18T05:57:14;0.80;;;0.80;;
6551;SDS011;3309;48.708;9.290;2023-11-18T05:59:41;0.70;;;0.70;;
6551;SDS011;3309;48.708;9.290;2023-11-18T06:02:07;0.70;;;0.70;;
6551;SDS011;3309;48.708;9.290;2023-11-18T06:04:33;0.80;;;0.80;;
6551;SDS011;3309;48.708;9.290;2023-11-18T06:07:00;0.80;;;0.80;;
6551;SDS011;3309;48.708;9.290;2023-11-18T06:09:27;0.70;;;0.70;;
6551;SDS011;3309;48.708;9.290;2023-11-18T06:11:53;0.70;;;0.70;;
6551;SDS011;3309;48.708;9.290;2023-11-18T06:14:20;0.70;;;0.70;;
6551;SDS011;3309;48.708;9.290;2023-11-18T06:16:47;0.73;;;0.73;;
6551;SDS011;3309;48.708;9.290;2023-11-18T06:19:15;0.80;;;0.80;;
6551;SDS011;3309;48.708;9.290;2023-11-18T06:21:41;0.80;;;0.80;;
6551;SDS011;3309;48.708;9.290;2023-11-18T06:24:07;0.80;;;0.80;;
6551;SDS011;3309;48.708;9.290;2023-11-18T06:26:36;0.80;;;0.80;;
6551;SDS011;3309;48.708;9.290;2023-11-18T06:29:04;0.70;;;0.70;;
6551;SDS011;3309;48.708;9.290;2023-11-18T06:31:31;0.70;;;0.70;;
6551;SDS011;3309;48.708;9.290;2023-11-18T06:33:57;0.77;;;0.77;;
6551;SDS011;3309;48.708;9.290;2023-11-18T06:36:23;0.80;;;0.80;;
6551;SDS011;3309;48.708;9.290;2023-11-18T06:38:51;0.80;;;0.80;;
6551;SDS011;3309;48.708;9.290;2023-11-18T06:41:19;0.77;;;0.77;;
6551;SDS011;3309;48.708;9.290;2023-11-18T06:43:48;0.70;;;0.70;;
6551;SDS011;3309;48.708;9.290;2023-11-18T06:46:20;0.70;;;0.70;;
6551;SDS011;3309;48.708;9.290;2023-11-18T06:48:49;0.77;;;0.77;;
6551;SDS011;3309;48.708;9.290;2023-11-18T06:51:15;0.73;;;0.73;;
6551;SDS011;3309;48.708;9.290;2023-11-18T06:53:42;0.80;;;0.80;;
6551;SDS011;3309;48.708;9.290;2023-11-18T06:56:11;0.70;;;0.70;;
6551;SDS011;3309;48.708;9.290;2023-11-18T06:58:40;0.70;;;0.70;;
6551;SDS011;3309;48.708;9.290;2023-11-18T07:01:07;0.70;;;0.70;;
6551;SDS011;3309;48.708;9.290;2023-11-18T07:03:34;0.70;;;0.70;;
6551;SDS011;3309;48.708;9.290;2023-11-18T07:06:01;0.90;;;0.90;;
6551;SDS011;3309;48.708;9.290;2023-11-18T07:08:27;0.90;;;0.90;;
6551;SDS011;3309;48.708;9.290;2023-11-18T07:10:54;0.80;;;0.80;;
6551;SDS011;3309;48.708;9.290;2023-11-18T07:13:21;0.70;;;0.70;;
6551;SDS011;3309;48.708;9.290;2023-11-18T07:15:49;0.77;;;0.77;;
6551;SDS011;3309;48.708;9.290;2023-11-18T07:18:15;0.80;;;0.80;;
6551;SDS011;3309;48.708;9.290;2023-11-18T07:20:41;0.50;;;0.50;;
6551;SDS011;3309;48.708;9.290;2023-11-18T07:23:07;0.50;;;0.50;;
6551;SDS011;3309;48.708;9.290;2023-11-18T07:25:33;0.50;;;0.50;;
6551;SDS011;3309;48.708;9.290;2023-11-18T07:27:59;0.50;;;0.50;;
6551;SDS011;3309;48.708;9.290;2023-11-18T07:30:25;0.40;;;0.40;;
6551;SDS011;3309;48.708;9.290;2023-11-18T07:32:51;0.50;;;0.50;;
6551;SDS011;3309;48.708;9.290;2023-11-18T07:35:18;0.43;;;0.43;;
6551;SDS011;3309;48.708;9.290;2023-11-18T07:37:44;0.40;;;0.40;;
6551;SDS011;3309;48.708;9.290;2023-11-18T07:40:10;0.50;;;0.50;;
6551;SDS011;3309;48.708;9.290;2023-11-18T07:42:37;0.57;;;0.57;;
6551;SDS011;3309;48.708;9.290;2023-11-18T07:45:04;0.40;;;0.40;;
6551;SDS011;3309;48.708;9.290;2023-11-18T07:47:42;0.40;;;0.40;;
6551;SDS011;3309;48.708;9.290;2023-11-18T07:50:08;0.50;;;0.50;;
6551;SDS011;3309;48.708;9.290;2023-11-18T07:52:37;0.40;;;0.40;;
6551;SDS011;3309;48.708;9.290;2023-11-18T07:55:03;0.40;;;0.40;;
6551;SDS011;3309;48.708;9.290;2023-11-18T07:57:29;0.40;;;0.40;;
6551;SDS011;3309;48.708;9.290;2023-11-18T07:59:55;0.40;;;0.40;;
6551;SDS011;3309;48.708;9.290;2023-11-18T08:02:21;0.50;;;0.50;;
6551;SDS011;3309;48.708;9.290;2023-11-18T08:04:48;0.50;;;0.50;;
6551;SDS011;3309;48.708;9.290;2023-11-18T08:07:14;0.50;;;0.50;;
6551;SDS011;3309;48.708;9.290;2023-11-18T08:09:40;0.43;;;0.43;;
6551;SDS011;3309;48.708;9.290;2023-11-18T08:12:08;0.43;;;0.43;;
6551;SDS011;3309;48.708;9.290;2023-11-18T08:14:35;0.57;;;0.57;;
6551;SDS011;3309;48.708;9.290;2023-11-18T08:17:01;0.50;;;0.50;;
6551;SDS011;3309;48.708;9.290;2023-11-18T08:19:29;0.50;;;0.50;;
6551;SDS011;3309;48.708;9.290;2023-11-18T08:21:55;0.50;;;0.50;;
6551;SDS011;3309;48.708;9.290;2023-11-18T08:24:21;0.40;;;0.40;;
6551;SDS011;3309;48.708;9.290;2023-11-18T08:26:48;0.50;;;0.50;;
6551;SDS011;3309;48.708;9.290;2023-11-18T08:29:14;0.50;;;0.50;;
6551;SDS011;3309;48.708;9.290;2023-11-18T08:31:41;0.50;;;0.50;;
6551;SDS011;3309;48.708;9.290;2023-11-18T08:34:09;0.50;;;0.50;;
6551;SDS011;3309;48.708;9.290;2023-11-18T08:36:35;0.50;;;0.50;;
6551;SDS011;3309;48.708;9.290;2023-11-18T08:39:01;0.60;;;0.60;;
6551;SDS011;3309;48.708;9.290;2023-11-18T08:41:27;0.50;;;0.50;;
6551;SDS011;3309;48.708;9.290;2023-11-18T08:43:56;0.60;;;0.60;;
6551;SDS011;3309;48.708;9.290;2023-11-18T08:46:22;0.70;;;0.70;;
6551;SDS011;3309;48.708;9.290;2023-11-18T08:48:48;0.60;;;0.60;;
6551;SDS011;3309;48.708;9.290;2023-11-18T08:51:14;0.50;;;0.50;;
6551;SDS011;3309;48.708;9.290;2023-11-18T08:53:41;0.60;;;0.60;;
6551;SDS011;3309;48.708;9.290;2023-11-18T08:56:10;0.60;;;0.60;;
6551;SDS011;3309;48.708;9.290;2023-11-18T08:58:42;0.60;;;0.60;;
6551;SDS011;3309;48.708;9.290;2023-11-18T09:01:09;0.50;;;0.50;;
6551;SDS011;3309;48.708;9.290;2023-11-18T09:03:39;0.50;;;0.50;;
6551;SDS011;3309;48.708;9.290;2023-11-18T09:06:13;0.67;;;0.67;;
6551;SDS011;3309;48.708;9.290;2023-11-18T09:08:43;0.50;;;0.50;;
6551;SDS011;3309;48.708;9.290;2023-11-18T09:11:09;0.50;;;0.50;;
6551;SDS011;3309;48.708;9.290;2023-11-18T09:13:36;0.50;;;0.50;;
6551;SDS011;3309;48.708;9.290;2023-11-18T09:16:04;0.50;;;0.50;;
6551;SDS011;3309;48.708;9.290;2023-11-18T09:18:34;0.50;;;0.50;;
6551;SDS011;3309;48.708;9.290;2023-11-18T09:21:03;0.50;;;0.50;;
6551;SDS011;3309;48.708;9.290;2023-11-18T09:23:31;0.40;;;0.40;;
6551;SDS011;3309;48.708;9.290;2023-11-18T09:25:59;0.50;;;0.50;;
6551;SDS011;3309;48.708;9.290;2023-11-18T09:28:26;0.40;;;0.40;;
6551;SDS011;3309;48.708;9.290;2023-11-18T09:30:54;0.50;;;0.50;;
6551;SDS011;3309;48.708;9.290;2023-11-18T09:33:24;0.50;;;0.50;;
6551;SDS011;3309;48.708;9.290;2023-11-18T09:36:03;0.50;;;0.50;;
6551;SDS011;3309;48.708;9.290;2023-11-18T09:38:33;0.50;;;0.50;;
6551;SDS011;3309;48.708;9.290;2023-11-18T09:41:04;0.50;;;0.50;;
6551;SDS011;3309;48.708;9.290;2023-11-18T09:43:39;0.50;;;0.50;;
6551;SDS011;3309;48.708;9.290;2023-11-18T09:46:16;0.40;;;0.40;;
6551;SDS011;3309;48.708;9.290;2023-11-18T09:48:47;0.50;;;0.50;;
6551;SDS011;3309;48.708;9.290;2023-11-18T09:51:21;0.40;;;0.40;;
6551;SDS011;3309;48.708;9.290;2023-11-18T09:53:48;0.50;;;0.50;;
6551;SDS011;3309;48.708;9.290;2023-11-18T09:56:19;0.60;;;0.60;;
6551;SDS011;3309;48.708;9.290;2023-11-18T09:59:01;0.50;;;0.50;;
6551;SDS011;3309;48.708;9.290;2023-11-18T10:01:41;0.50;;;0.50;;
6551;SDS011;3309;48.708;9.290;2023-11-18T10:04:09;0.60;;;0.60;;
6551;SDS011;3309;48.708;9.290;2023-11-18T10:06:36;0.50;;;0.50;;
6551;SDS011;3309;48.708;9.290;2023-11-18T10:09:04;0.50;;;0.50;;
6551;SDS011;3309;48.708;9.290;2023-11-18T10:11:42;0.50;;;0.50;;
6551;SDS011;3309;48.708;9.290;2023-11-18T10:14:08;0.57;;;0.57;;
6551;SDS011;3309;48.708;9.290;2023-11-18T10:16:35;0.50;;;0.50;;
6551;SDS011;3309;48.708;9.290;2023-11-18T10:19:03;0.50;;;0.50;;
6551;SDS011;3309;48.708;9.290;2023-11-18T10:21:37;0.50;;;0.50;;
6551;SDS011;3309;48.708;9.290;2023-11-18T10:24:09;0.60;;;0.60;;
6551;SDS011;3309;48.708;9.290;2023-11-18T10:26:44;0.50;;;0.50;;
6551;SDS011;3309;48.708;9.290;2023-11-18T10:29:11;0.50;;;0.50;;
6551;SDS011;3309;48.708;9.290;2023-11-18T10:31:38;0.60;;;0.60;;
6551;SDS011;3309;48.708;9.290;2023-11-18T10:34:12;0.50;;;0.50;;
6551;SDS011;3309;48.708;9.290;2023-11-18T10:36:40;0.50;;;0.50;;
6551;SDS011;3309;48.708;9.290;2023-11-18T10:39:10;0.60;;;0.60;;
6551;SDS011;3309;48.708;9.290;2023-11-18T10:41:41;0.50;;;0.50;;
6551;SDS011;3309;48.708;9.290;2023-11-18T10:44:08;0.50;;;0.50;;
6551;SDS011;3309;48.708;9.290;2023-11-18T10:46:41;0.60;;;0.60;;
6551;SDS011;3309;48.708;9.290;2023-11-18T10:49:07;0.50;;;0.50;;
6551;SDS011;3309;48.708;9.290;2023-11-18T10:51:35;0.60;;;0.60;;
6551;SDS011;3309;48.708;9.290;2023-11-18T10:54:04;0.57;;;0.57;;
6551;SDS011;3309;48.708;9.290;2023-11-18T10:56:39;0.50;;;0.50;;
6551;SDS011;3309;48.708;9.290;2023-11-18T10:59:11;0.60;;;0.60;;
6551;SDS011;3309;48.708;9.290;2023-11-18T11:01:41;0.50;;;0.50;;
6551;SDS011;3309;48.708;9.290;2023-11-18T11:04:07;0.60;;;0.60;;
6551;SDS011;3309;48.708;9.290;2023-11-18T11:06:35;0.60;;;0.60;;
6551;SDS011;3309;48.708;9.290;2023-11-18T11:09:02;0.60;;;0.60;;
6551;SDS011;3309;48.708;9.290;2023-11-18T11:11:39;0.60;;;0.60;;
6551;SDS011;3309;48.708;9.290;2023-11-18T11:14:05;0.60;;;0.60;;
6551;SDS011;3309;48.708;9.290;2023-11-18T11:16:40;0.50;;;0.50;;
6551;SDS011;3309;48.708;9.290;2023-11-18T11:19:11;0.60;;;0.60;;
6551;SDS011;3309;48.708;9.290;2023-11-18T11:21:44;0.60;;;0.60;;
6551;SDS011;3309;48.708;9.290;2023-11-18T11:24:20;0.60;;;0.60;;
6551;SDS011;3309;48.708;9.290;2023-11-18T11:32:00;0.50;;;0.50;;
6551;SDS011;3309;48.708;9.290;2023-11-18T11:34:28;0.50;;;0.50;;
6551;SDS011;3309;48.708;9.290;2023-11-18T11:36:56;0.60;;;0.60;;
6551;SDS011;3309;48.708;9.290;2023-11-18T11:39:24;0.60;;;0.60;;
6551;SDS011;3309;48.708;9.290;2023-11-18T11:41:55;0.50;;;0.50;;
6551;SDS011;3309;48.708;9.290;2023-11-18T11:44:22;0.53;;;0.53;;
6551;SDS011;3309;48.708;9.290;2023-11-18T11:46:54;0.50;;;0.50;;
6551;SDS011;3309;48.708;9.290;2023-11-18T11:49:21;0.53;;;0.53;;
6551;SDS011;3309;48.708;9.290;2023-11-18T11:54:28;0.50;;;0.50;;
6551;SDS011;3309;48.708;9.290;2023-11-18T11:56:56;0.50;;;0.50;;
6551;SDS011;3309;48.708;9.290;2023-11-18T12:02:10;0.60;;;0.60;;
6551;SDS011;3309;48.708;9.290;2023-11-18T12:04:40;0.60;;;0.60;;
6551;SDS011;3309;48.708;9.290;2023-11-18T12:07:09;0.70;;;0.70;;
6551;SDS011;3309;48.708;9.290;2023-11-18T12:09:35;0.70;;;0.70;;
6551;SDS011;3309;48.708;9.290;2023-11-18T12:12:04;0.70;;;0.70;;
6551;SDS011;3309;48.708;9.290;2023-11-18T12:14:35;0.60;;;0.60;;
6551;SDS011;3309;48.708;9.290;2023-11-18T12:17:14;0.70;;;0.70;;
6551;SDS011;3309;48.708;9.290;2023-11-18T12:19:46;0.73;;;0.73;;
6551;SDS011;3309;48.708;9.290;2023-11-18T12:22:13;0.73;;;0.73;;
6551;SDS011;3309;48.708;9.290;2023-11-18T12:24:46;0.70;;;0.70;;
6551;SDS011;3309;48.708;9.290;2023-11-18T12:27:35;0.70;;;0.70;;
6551;SDS011;3309;48.708;9.290;2023-11-18T12:30:01;0.50;;;0.50;;
6551;SDS011;3309;48.708;9.290;2023-11-18T12:35:18;0.60;;;0.60;;
6551;SDS011;3309;48.708;9.290;2023-11-18T12:42:59;0.60;;;0.60;;
6551;SDS011;3309;48.708;9.290;2023-11-18T12:45:41;0.60;;;0.60;;
6551;SDS011;3309;48.708;9.290;2023-11-18T12:48:09;0.53;;;0.53;;
6551;SDS011;3309;48.708;9.290;2023-11-18T12:50:40;0.57;;;0.57;;
6551;SDS011;3309;48.708;9.290;2023-11-18T12:53:08;0.60;;;0.60;;
6551;SDS011;3309;48.708;9.290;2023-11-18T12:55:34;0.70;;;0.70;;
6551;SDS011;3309;48.708;9.290;2023-11-18T12:58:01;0.70;;;0.70;;
6551;SDS011;3309;48.708;9.290;2023-11-18T13:00:30;0.60;;;0.60;;
6551;SDS011;3309;48.708;9.290;2023-11-18T13:02:59;0.70;;;0.70;;
6551;SDS011;3309;48.708;9.290;2023-11-18T13:05:25;0.70;;;0.70;;
6551;SDS011;3309;48.708;9.290;2023-11-18T13:07:58;0.70;;;0.70;;
6551;SDS011;3309;48.708;9.290;2023-11-18T13:10:26;0.60;;;0.60;;
6551;SDS011;3309;48.708;9.290;2023-11-18T13:12:52;0.60;;;0.60;;
6551;SDS011;3309;48.708;9.290;2023-11-18T13:15:18;0.60;;;0.60;;
6551;SDS011;3309;48.708;9.290;2023-11-18T13:17:58;0.70;;;0.70;;
6551;SDS011;3309;48.708;9.290;2023-11-18T13:20:24;0.70;;;0.70;;
6551;SDS011;3309;48.708;9.290;2023-11-18T13:22:52;0.70;;;0.70;;
6551;SDS011;3309;48.708;9.290;2023-11-18T13:25:20;0.60;;;0.60;;
6551;SDS011;3309;48.708;9.290;2023-11-18T13:27:46;0.57;;;0.57;;
6551;SDS011;3309;48.708;9.290;2023-11-18T13:30:12;0.70;;;0.70;;
6551;SDS011;3309;48.708;9.290;2023-11-18T13:32:43;0.77;;;0.77;;
6551;SDS011;3309;48.708;9.290;2023-11-18T13:35:12;0.80;;;0.80;;
6551;SDS011;3309;48.708;9.290;2023-11-18T13:37:38;0.80;;;0.80;;
6551;SDS011;3309;48.708;9.290;2023-11-18T13:40:06;0.63;;;0.63;;
6551;SDS011;3309;48.708;9.290;2023-11-18T13:42:33;0.60;;;0.60;;
6551;SDS011;3309;48.708;9.290;2023-11-18T13:45:13;0.60;;;0.60;;
6551;SDS011;3309;48.708;9.290;2023-11-18T13:47:55;0.77;;;0.77;;
6551;SDS011;3309;48.708;9.290;2023-11-18T13:50:22;0.80;;;0.80;;
6551;SDS011;3309;48.708;9.290;2023-11-18T13:52:50;0.60;;;0.60;;
6551;SDS011;3309;48.708;9.290;2023-11-18T13:55:16;0.67;;;0.67;;
6551;SDS011;3309;48.708;9.290;2023-11-18T13:57:42;0.70;;;0.70;;
6551;SDS011;3309;48.708;9.290;2023-11-18T14:00:09;0.60;;;0.60;;
6551;SDS011;3309;48.708;9.290;2023-11-18T14:02:40;0.70;;;0.70;;
6551;SDS011;3309;48.708;9.290;2023-11-18T14:05:14;0.77;;;0.77;;
6551;SDS011;3309;48.708;9.290;2023-11-18T14:07:41;0.80;;;0.80;;
6551;SDS011;3309;48.708;9.290;2023-11-18T14:10:08;0.70;;;0.70;;
6551;SDS011;3309;48.708;9.290;2023-11-18T14:12:38;0.80;;;0.80;;
6551;SDS011;3309;48.708;9.290;2023-11-18T14:15:04;0.67;;;0.67;;
6551;SDS011;3309;48.708;9.290;2023-11-18T14:17:30;0.80;;;0.80;;
6551;SDS011;3309;48.708;9.290;2023-11-18T14:19:56;0.80;;;0.80;;
6551;SDS011;3309;48.708;9.290;2023-11-18T14:22:21;0.77;;;0.77;;
6551;SDS011;3309;48.708;9.290;2023-11-18T14:24:48;0.63;;;0.63;;
6551;SDS011;3309;48.708;9.290;2023-11-18T14:27:14;0.77;;;0.77;;
6551;SDS011;3309;48.708;9.290;2023-11-18T14:29:39;0.70;;;0.70;;
6551;SDS011;3309;48.708;9.290;2023-11-18T14:32:05;0.77;;;0.77;;
6551;SDS011;3309;48.708;9.290;2023-11-18T14:34:31;0.70;;;0.70;;
6551;SDS011;3309;48.708;9.290;2023-11-18T14:36:56;0.80;;;0.80;;
6551;SDS011;3309;48.708;9.290;2023-11-18T14:39:22;0.80;;;0.80;;
6551;SDS011;3309;48.708;9.290;2023-11-18T14:41:48;0.80;;;0.80;;
6551;SDS011;3309;48.708;9.290;2023-11-18T14:44:15;0.80;;;0.80;;
6551;SDS011;3309;48.708;9.290;2023-11-18T14:46:42;0.70;;;0.70;;
6551;SDS011;3309;48.708;9.290;2023-11-18T14:49:08;0.80;;;0.80;;
6551;SDS011;3309;48.708;9.290;2023-11-18T14:51:35;0.70;;;0.70;;
6551;SDS011;3309;48.708;9.290;2023-11-18T14:54:00;0.70;;;0.70;;
6551;SDS011;3309;48.708;9.290;2023-11-18T14:56:26;0.70;;;0.70;;
6551;SDS011;3309;48.708;9.290;2023-11-18T14:58:52;0.70;;;0.70;;
6551;SDS011;3309;48.708;9.290;2023-11-18T15:01:17;0.70;;;0.70;;
6551;SDS011;3309;48.708;9.290;2023-11-18T15:03:43;0.70;;;0.70;;
6551;SDS011;3309;48.708;9.290;2023-11-18T15:06:10;0.70;;;0.70;;
6551;SDS011;3309;48.708;9.290;2023-11-18T15:08:37;0.70;;;0.70;;
6551;SDS011;3309;48.708;9.290;2023-11-18T15:11:04;0.70;;;0.70;;
6551;SDS011;3309;48.708;9.290;2023-11-18T15:13:31;0.77;;;0.77;;
6551;SDS011;3309;48.708;9.290;2023-11-18T15:15:57;0.70;;;0.70;;
6551;SDS011;3309;48.708;9.290;2023-11-18T15:18:23;0.70;;;0.70;;
6551;SDS011;3309;48.708;9.290;2023-11-18T15:20:49;0.60;;;0.60;;
6551;SDS011;3309;48.708;9.290;2023-11-18T15:23:17;0.70;;;0.70;;
6551;SDS011;3309;48.708;9.290;2023-11-18T15:25:42;0.60;;;0.60;;
6551;SDS011;3309;48.708;9.290;2023-11-18T15:28:08;0.60;;;0.60;;
6551;SDS011;3309;48.708;9.290;2023-11-18T15:30:37;0.80;;;0.80;;
6551;SDS011;3309;48.708;9.290;2023-11-18T15:33:04;0.77;;;0.77;;
6551;SDS011;3309;48.708;9.290;2023-11-18T15:35:34;0.70;;;0.70;;
6551;SDS011;3309;48.708;9.290;2023-11-18T15:38:03;0.83;;;0.83;;